createdAt,value
2018-03-26T00:00:27.363Z,0
2018-03-26T00:01:28.075Z,0
2018-03-26T00:02:28.786Z,0
2018-03-26T00:03:29.497Z,0
2018-03-26T00:04:30.210Z,0
2018-03-26T00:05:30.922Z,0
2018-03-26T00:06:31.632Z,0
2018-03-26T00:07:32.354Z,0
2018-03-26T00:08:33.067Z,0
2018-03-26T00:09:33.780Z,0
2018-03-26T00:10:34.492Z,0
2018-03-26T00:11:35.205Z,0
2018-03-26T00:12:35.916Z,0
2018-03-26T00:13:36.628Z,0
2018-03-26T00:14:37.340Z,0
2018-03-26T00:15:38.051Z,0
2018-03-26T00:16:38.762Z,0
2018-03-26T00:17:39.472Z,0
2018-03-26T00:18:40.184Z,0
2018-03-26T00:19:40.900Z,0
2018-03-26T00:20:41.609Z,0
2018-03-26T00:21:42.335Z,0
2018-03-26T00:22:43.052Z,0
2018-03-26T00:23:43.772Z,0
2018-03-26T00:24:44.498Z,0
2018-03-26T00:25:45.210Z,0
2018-03-26T00:26:45.919Z,0
2018-03-26T00:27:46.647Z,0
2018-03-26T00:28:47.357Z,0
2018-03-26T00:29:48.092Z,0
2018-03-26T00:30:48.794Z,0
2018-03-26T00:31:49.522Z,0
2018-03-26T00:32:50.246Z,0
2018-03-26T00:33:50.959Z,0
2018-03-26T00:34:51.707Z,0
2018-03-26T00:35:52.408Z,0
2018-03-26T00:36:53.120Z,0
2018-03-26T00:37:53.843Z,0
2018-03-26T00:38:54.557Z,0
2018-03-26T00:39:55.268Z,0
2018-03-26T00:40:55.981Z,0
2018-03-26T00:41:56.708Z,0
2018-03-26T00:42:57.422Z,0
2018-03-26T00:43:58.131Z,0
2018-03-26T00:44:58.841Z,0
2018-03-26T00:45:59.565Z,0
2018-03-26T00:47:00.278Z,0
2018-03-26T00:48:00.988Z,0
2018-03-26T00:49:01.702Z,0
2018-03-26T00:50:02.414Z,0
2018-03-26T00:51:03.125Z,0
2018-03-26T00:52:03.849Z,0
2018-03-26T00:53:04.561Z,0
2018-03-26T00:54:05.271Z,0
2018-03-26T00:55:05.982Z,0
2018-03-26T00:56:06.693Z,0
2018-03-26T00:57:07.404Z,0
2018-03-26T00:58:08.118Z,0
2018-03-26T00:59:08.830Z,0
2018-03-26T01:00:09.556Z,0
2018-03-26T01:01:10.281Z,0
2018-03-26T01:02:11.005Z,0
2018-03-26T01:03:11.731Z,0
2018-03-26T01:04:12.444Z,0
2018-03-26T01:05:13.157Z,0
2018-03-26T01:06:13.868Z,0
2018-03-26T01:07:14.578Z,0
2018-03-26T01:08:15.291Z,0
2018-03-26T01:09:16.001Z,0
2018-03-26T01:10:16.712Z,0
2018-03-26T01:11:17.422Z,0
2018-03-26T01:12:18.148Z,0
2018-03-26T01:13:18.860Z,0
2018-03-26T01:14:19.592Z,0
2018-03-26T01:15:20.298Z,0
2018-03-26T01:16:21.008Z,0
2018-03-26T01:17:21.719Z,0
2018-03-26T01:18:22.430Z,0
2018-03-26T01:19:23.141Z,0
2018-03-26T01:20:23.850Z,0
2018-03-26T01:21:24.585Z,0
2018-03-26T01:22:25.288Z,0
2018-03-26T01:23:26.000Z,0
2018-03-26T01:24:26.714Z,0
2018-03-26T01:25:27.427Z,0
2018-03-26T01:26:28.139Z,0
2018-03-26T01:27:28.862Z,0
2018-03-26T01:28:29.573Z,0
2018-03-26T01:29:30.299Z,0
2018-03-26T01:30:31.011Z,0
2018-03-26T01:31:31.729Z,0
2018-03-26T01:32:32.436Z,0
2018-03-26T01:33:33.147Z,0
2018-03-26T01:34:33.859Z,0
2018-03-26T01:35:34.570Z,0
2018-03-26T01:36:35.280Z,0
2018-03-26T01:37:35.992Z,0
2018-03-26T01:38:36.703Z,0
2018-03-26T01:39:37.413Z,0
2018-03-26T01:40:38.125Z,0
2018-03-26T01:41:38.836Z,0
2018-03-26T01:42:39.548Z,0
2018-03-26T01:43:40.261Z,0
2018-03-26T01:44:40.986Z,0
2018-03-26T01:45:41.697Z,0
2018-03-26T01:46:42.410Z,0
2018-03-26T01:47:43.122Z,0
2018-03-26T01:48:43.835Z,0
2018-03-26T01:49:44.559Z,0
2018-03-26T01:50:45.271Z,0
2018-03-26T01:51:45.982Z,0
2018-03-26T01:52:46.692Z,0
2018-03-26T01:53:47.402Z,0
2018-03-26T01:54:48.112Z,0
2018-03-26T01:55:48.823Z,0
2018-03-26T01:56:49.533Z,0
2018-03-26T01:57:50.258Z,0
2018-03-26T01:58:50.984Z,0
2018-03-26T01:59:51.696Z,0
2018-03-26T02:00:52.406Z,0
2018-03-26T02:01:53.131Z,0
2018-03-26T02:02:53.842Z,0
2018-03-26T02:03:54.555Z,0
2018-03-26T02:04:55.266Z,0
2018-03-26T02:05:55.991Z,0
2018-03-26T02:06:56.702Z,0
2018-03-26T02:07:57.427Z,0
2018-03-26T02:08:58.138Z,0
2018-03-26T02:09:58.851Z,0
2018-03-26T02:10:59.564Z,0
2018-03-26T02:12:00.277Z,0
2018-03-26T02:13:00.986Z,0
2018-03-26T02:14:01.695Z,0
2018-03-26T02:15:02.420Z,0
2018-03-26T02:16:03.145Z,0
2018-03-26T02:17:03.874Z,0
2018-03-26T02:18:04.581Z,0
2018-03-26T02:19:05.291Z,0
2018-03-26T02:20:06.004Z,0
2018-03-26T02:21:06.715Z,0
2018-03-26T02:22:07.428Z,0
2018-03-26T02:23:08.139Z,0
2018-03-26T02:24:08.849Z,0
2018-03-26T02:25:09.560Z,0
2018-03-26T02:26:10.269Z,0
2018-03-26T02:27:10.982Z,0
2018-03-26T02:28:11.693Z,0
2018-03-26T02:29:12.403Z,0
2018-03-26T02:30:13.119Z,0
2018-03-26T02:31:13.842Z,0
2018-03-26T02:32:14.560Z,0
2018-03-26T02:33:15.273Z,0
2018-03-26T02:34:15.984Z,0
2018-03-26T02:35:16.703Z,0
2018-03-26T02:36:17.404Z,0
2018-03-26T02:37:18.114Z,0
2018-03-26T02:38:18.828Z,0
2018-03-26T02:39:19.534Z,0
2018-03-26T02:40:20.253Z,0
2018-03-26T02:41:20.952Z,0
2018-03-26T02:42:21.679Z,0
2018-03-26T02:43:22.389Z,0
2018-03-26T02:44:23.098Z,0
2018-03-26T02:45:23.807Z,0
2018-03-26T02:46:24.518Z,0
2018-03-26T02:47:25.228Z,0
2018-03-26T02:48:25.937Z,0
2018-03-26T02:49:26.650Z,0
2018-03-26T02:50:27.360Z,0
2018-03-26T02:51:28.071Z,0
2018-03-26T02:52:28.783Z,0
2018-03-26T02:53:29.494Z,0
2018-03-26T02:54:30.205Z,0
2018-03-26T02:55:30.916Z,0
2018-03-26T02:56:31.641Z,0
2018-03-26T02:57:32.354Z,0
2018-03-26T02:58:33.065Z,0
2018-03-26T02:59:33.778Z,0
2018-03-26T03:00:34.486Z,0
2018-03-26T03:01:35.200Z,0
2018-03-26T03:02:35.906Z,0
2018-03-26T03:03:36.618Z,0
2018-03-26T03:04:37.326Z,0
2018-03-26T03:05:38.050Z,0
2018-03-26T03:06:38.762Z,0
2018-03-26T03:07:39.471Z,0
2018-03-26T03:08:40.197Z,0
2018-03-26T03:09:40.907Z,0
2018-03-26T03:10:41.617Z,0
2018-03-26T03:11:42.326Z,0
2018-03-26T03:12:43.037Z,0
2018-03-26T03:13:43.747Z,0
2018-03-26T03:14:44.459Z,0
2018-03-26T03:15:45.171Z,0
2018-03-26T03:16:45.881Z,0
2018-03-26T03:17:46.607Z,0
2018-03-26T03:18:47.334Z,0
2018-03-26T03:19:48.043Z,0
2018-03-26T03:20:48.754Z,0
2018-03-26T03:21:49.464Z,0
2018-03-26T03:22:50.175Z,0
2018-03-26T03:23:50.886Z,0
2018-03-26T03:24:51.599Z,0
2018-03-26T03:25:52.311Z,0
2018-03-26T03:26:53.023Z,0
2018-03-26T03:27:53.730Z,0
2018-03-26T03:28:54.457Z,0
2018-03-26T03:29:55.166Z,0
2018-03-26T03:30:55.879Z,0
2018-03-26T03:31:56.603Z,0
2018-03-26T03:32:57.313Z,0
2018-03-26T03:33:58.023Z,0
2018-03-26T03:34:58.733Z,0
2018-03-26T03:35:59.444Z,0
2018-03-26T03:37:00.154Z,0
2018-03-26T03:38:00.881Z,0
2018-03-26T03:39:01.592Z,0
2018-03-26T03:40:02.316Z,0
2018-03-26T03:41:03.027Z,0
2018-03-26T03:42:03.736Z,0
2018-03-26T03:43:04.447Z,0
2018-03-26T03:44:05.157Z,0
2018-03-26T03:45:05.884Z,0
2018-03-26T03:46:06.595Z,0
2018-03-26T03:47:07.304Z,0
2018-03-26T03:48:08.021Z,0
2018-03-26T03:49:08.727Z,0
2018-03-26T03:50:09.437Z,0
2018-03-26T03:51:10.159Z,0
2018-03-26T03:52:10.869Z,0
2018-03-26T03:53:11.593Z,0
2018-03-26T03:54:12.305Z,0
2018-03-26T03:55:13.026Z,0
2018-03-26T03:56:13.735Z,0
2018-03-26T03:57:14.447Z,0
2018-03-26T03:58:15.156Z,0
2018-03-26T03:59:15.879Z,0
2018-03-26T04:00:16.587Z,0
2018-03-26T04:01:17.299Z,0
2018-03-26T04:02:18.007Z,0
2018-03-26T04:03:18.729Z,0
2018-03-26T04:04:19.437Z,0
2018-03-26T04:05:20.147Z,0
2018-03-26T04:06:20.858Z,0
2018-03-26T04:07:21.816Z,0
2018-03-26T04:08:22.528Z,0
2018-03-26T04:09:23.237Z,0
2018-03-26T04:10:23.945Z,0
2018-03-26T04:11:24.655Z,0
2018-03-26T04:12:25.616Z,0
2018-03-26T04:13:26.327Z,0
2018-03-26T04:14:27.037Z,0
2018-03-26T04:15:27.746Z,0
2018-03-26T04:16:28.462Z,0
2018-03-26T04:17:29.166Z,0
2018-03-26T04:18:29.874Z,0
2018-03-26T04:19:30.584Z,0
2018-03-26T04:20:31.292Z,0
2018-03-26T04:21:32.036Z,0
2018-03-26T04:22:32.711Z,0
2018-03-26T04:23:33.432Z,0
2018-03-26T04:24:34.142Z,0
2018-03-26T04:25:34.854Z,0
2018-03-26T04:26:35.577Z,0
2018-03-26T04:27:36.290Z,0
2018-03-26T04:28:37.001Z,0
2018-03-26T04:29:37.713Z,0
2018-03-26T04:30:38.433Z,0
2018-03-26T04:31:39.157Z,0
2018-03-26T04:32:39.865Z,0
2018-03-26T04:33:40.576Z,0
2018-03-26T04:34:41.285Z,0
2018-03-26T04:35:42.008Z,0
2018-03-26T04:36:42.729Z,0
2018-03-26T04:37:43.441Z,0
2018-03-26T04:38:44.152Z,0
2018-03-26T04:39:44.861Z,0
2018-03-26T04:40:45.571Z,0
2018-03-26T04:41:46.280Z,0
2018-03-26T04:42:47.004Z,0
2018-03-26T04:43:47.730Z,0
2018-03-26T04:44:48.449Z,0
2018-03-26T04:45:49.157Z,0
2018-03-26T04:46:49.867Z,0
2018-03-26T04:47:50.574Z,0
2018-03-26T04:48:51.284Z,0
2018-03-26T04:49:51.994Z,0
2018-03-26T04:50:52.701Z,0
2018-03-26T04:51:53.425Z,0
2018-03-26T04:52:54.136Z,0
2018-03-26T04:53:54.846Z,0
2018-03-26T04:54:55.554Z,0
2018-03-26T04:55:56.278Z,0
2018-03-26T04:56:56.989Z,0
2018-03-26T04:57:57.699Z,0
2018-03-26T04:58:58.411Z,0
2018-03-26T04:59:59.122Z,0
2018-03-26T05:00:59.831Z,0
2018-03-26T05:02:00.541Z,0
2018-03-26T05:03:01.252Z,0
2018-03-26T05:04:01.963Z,0
2018-03-26T05:05:02.679Z,0
2018-03-26T05:06:03.381Z,0
2018-03-26T05:07:04.090Z,0
2018-03-26T05:08:04.802Z,0
2018-03-26T05:09:05.530Z,0
2018-03-26T05:10:06.236Z,0
2018-03-26T05:11:06.946Z,0
2018-03-26T05:12:07.657Z,0
2018-03-26T05:13:08.364Z,0
2018-03-26T05:14:09.076Z,0
2018-03-26T05:15:09.785Z,0
2018-03-26T05:16:10.494Z,0
2018-03-26T05:17:11.205Z,0
2018-03-26T05:18:11.917Z,0
2018-03-26T05:19:12.629Z,0
2018-03-26T05:20:13.339Z,0
2018-03-26T05:21:14.049Z,5
2018-03-26T05:22:14.761Z,5
2018-03-26T05:23:15.470Z,5
2018-03-26T05:24:16.181Z,5
2018-03-26T05:25:16.892Z,5
2018-03-26T05:26:17.603Z,5
2018-03-26T05:27:18.312Z,5
2018-03-26T05:28:19.023Z,10
2018-03-26T05:29:19.737Z,10
2018-03-26T05:30:20.452Z,10
2018-03-26T05:31:21.166Z,10
2018-03-26T05:32:21.876Z,10
2018-03-26T05:33:22.587Z,10
2018-03-26T05:34:23.300Z,10
2018-03-26T05:35:24.021Z,15
2018-03-26T05:36:24.748Z,15
2018-03-26T05:37:25.460Z,15
2018-03-26T05:38:26.173Z,15
2018-03-26T05:39:26.883Z,20
2018-03-26T05:40:27.598Z,20
2018-03-26T05:41:28.307Z,20
2018-03-26T05:42:29.018Z,20
2018-03-26T05:43:29.742Z,25
2018-03-26T05:44:30.455Z,25
2018-03-26T05:45:31.174Z,25
2018-03-26T05:46:31.893Z,25
2018-03-26T05:47:32.605Z,30
2018-03-26T05:48:33.318Z,30
2018-03-26T05:49:34.030Z,30
2018-03-26T05:50:34.742Z,30
2018-03-26T05:51:35.455Z,30
2018-03-26T05:52:36.167Z,30
2018-03-26T05:53:36.892Z,30
2018-03-26T05:54:37.606Z,30
2018-03-26T05:55:38.319Z,30
2018-03-26T05:56:39.030Z,30
2018-03-26T05:57:39.742Z,30
2018-03-26T05:58:40.453Z,30
2018-03-26T05:59:41.177Z,30
2018-03-26T06:00:41.893Z,30
2018-03-26T06:01:42.600Z,35
2018-03-26T06:02:43.313Z,35
2018-03-26T06:03:44.025Z,40
2018-03-26T06:04:44.738Z,45
2018-03-26T06:05:45.452Z,45
2018-03-26T06:06:46.166Z,45
2018-03-26T06:07:46.879Z,45
2018-03-26T06:08:47.606Z,45
2018-03-26T06:09:48.318Z,45
2018-03-26T06:10:49.041Z,45
2018-03-26T06:11:49.754Z,50
2018-03-26T06:12:50.470Z,50
2018-03-26T06:13:51.183Z,55
2018-03-26T06:14:51.897Z,60
2018-03-26T06:15:52.623Z,60
2018-03-26T06:16:53.336Z,65
2018-03-26T06:17:54.048Z,65
2018-03-26T06:18:54.762Z,65
2018-03-26T06:19:55.477Z,65
2018-03-26T06:20:56.201Z,65
2018-03-26T06:21:56.914Z,70
2018-03-26T06:22:57.646Z,70
2018-03-26T06:23:58.353Z,75
2018-03-26T06:24:59.067Z,80
2018-03-26T06:25:59.782Z,85
2018-03-26T06:27:00.494Z,85
2018-03-26T06:28:01.209Z,95
2018-03-26T06:29:01.920Z,95
2018-03-26T06:30:02.636Z,100
2018-03-26T06:31:03.349Z,110
2018-03-26T06:32:04.076Z,110
2018-03-26T06:33:04.792Z,110
2018-03-26T06:34:05.509Z,110
2018-03-26T06:35:06.236Z,115
2018-03-26T06:36:06.951Z,115
2018-03-26T06:37:07.667Z,115
2018-03-26T06:38:08.382Z,120
2018-03-26T06:39:09.096Z,125
2018-03-26T06:40:09.823Z,130
2018-03-26T06:41:10.537Z,135
2018-03-26T06:42:11.266Z,140
2018-03-26T06:43:11.981Z,145
2018-03-26T06:44:12.733Z,155
2018-03-26T06:45:13.427Z,200
2018-03-26T06:46:14.140Z,185
2018-03-26T06:47:14.941Z,215
2018-03-26T06:48:15.570Z,185
2018-03-26T06:49:16.286Z,140
2018-03-26T06:50:17.001Z,140
2018-03-26T06:51:17.717Z,145
2018-03-26T06:52:18.445Z,150
2018-03-26T06:53:19.160Z,135
2018-03-26T06:54:19.875Z,130
2018-03-26T06:55:20.605Z,130
2018-03-26T06:56:21.320Z,130
2018-03-26T06:57:22.036Z,135
2018-03-26T06:58:22.751Z,140
2018-03-26T06:59:23.467Z,150
2018-03-26T07:00:24.187Z,155
2018-03-26T07:01:24.898Z,175
2018-03-26T07:02:25.614Z,275
2018-03-26T07:03:26.341Z,175
2018-03-26T07:04:27.048Z,155
2018-03-26T07:05:27.762Z,165
2018-03-26T07:06:28.488Z,195
2018-03-26T07:07:29.219Z,240
2018-03-26T07:08:29.934Z,185
2018-03-26T07:09:30.650Z,250
2018-03-26T07:10:31.365Z,195
2018-03-26T07:11:32.097Z,305
2018-03-26T07:12:32.825Z,395
2018-03-26T07:13:33.531Z,445
2018-03-26T07:14:34.248Z,455
2018-03-26T07:15:34.971Z,465
2018-03-26T07:16:35.699Z,470
2018-03-26T07:17:36.416Z,440
2018-03-26T07:18:37.134Z,455
2018-03-26T07:19:37.853Z,505
2018-03-26T07:20:38.571Z,505
2018-03-26T07:21:39.349Z,515
2018-03-26T07:22:40.012Z,535
2018-03-26T07:23:40.733Z,540
2018-03-26T07:24:41.452Z,540
2018-03-26T07:25:42.174Z,515
2018-03-26T07:26:42.906Z,540
2018-03-26T07:27:43.627Z,475
2018-03-26T07:28:44.351Z,560
2018-03-26T07:29:45.086Z,495
2018-03-26T07:30:45.805Z,560
2018-03-26T07:31:46.531Z,575
2018-03-26T07:32:47.255Z,555
2018-03-26T07:33:47.978Z,525
2018-03-26T07:34:48.702Z,615
2018-03-26T07:35:49.428Z,545
2018-03-26T07:36:50.163Z,590
2018-03-26T07:37:50.894Z,630
2018-03-26T07:38:51.617Z,610
2018-03-26T07:39:52.344Z,630
2018-03-26T07:40:53.066Z,660
2018-03-26T07:41:53.800Z,640
2018-03-26T07:42:54.525Z,680
2018-03-26T07:43:55.255Z,685
2018-03-26T07:44:55.977Z,705
2018-03-26T07:45:56.702Z,685
2018-03-26T07:46:57.427Z,700
2018-03-26T07:47:58.151Z,710
2018-03-26T07:48:58.893Z,690
2018-03-26T07:49:59.618Z,695
2018-03-26T07:51:00.343Z,685
2018-03-26T07:52:01.083Z,765
2018-03-26T07:53:01.810Z,750
2018-03-26T07:54:02.536Z,800
2018-03-26T07:55:03.264Z,800
2018-03-26T07:56:04.003Z,785
2018-03-26T07:57:04.730Z,720
2018-03-26T07:58:05.456Z,680
2018-03-26T07:59:06.216Z,515
2018-03-26T08:00:06.926Z,770
2018-03-26T08:01:07.656Z,820
2018-03-26T08:02:08.382Z,845
2018-03-26T08:03:09.104Z,815
2018-03-26T08:04:09.836Z,805
2018-03-26T08:05:10.561Z,875
2018-03-26T08:06:11.291Z,900
2018-03-26T08:07:12.018Z,870
2018-03-26T08:08:12.747Z,885
2018-03-26T08:09:13.474Z,850
2018-03-26T08:10:14.203Z,875
2018-03-26T08:11:14.933Z,900
2018-03-26T08:12:15.665Z,890
2018-03-26T08:13:16.392Z,905
2018-03-26T08:14:17.120Z,925
2018-03-26T08:15:17.863Z,920
2018-03-26T08:16:18.591Z,935
2018-03-26T08:17:19.374Z,930
2018-03-26T08:18:20.052Z,940
2018-03-26T08:19:20.781Z,980
2018-03-26T08:20:21.512Z,1010
2018-03-26T08:21:22.255Z,995
2018-03-26T08:22:22.988Z,1005
2018-03-26T08:23:23.719Z,975
2018-03-26T08:24:24.453Z,1025
2018-03-26T08:25:25.184Z,1060
2018-03-26T08:26:25.917Z,740
2018-03-26T08:27:26.652Z,1160
2018-03-26T08:28:27.388Z,715
2018-03-26T08:29:28.119Z,600
2018-03-26T08:30:28.853Z,480
2018-03-26T08:31:29.582Z,970
2018-03-26T08:32:30.312Z,620
2018-03-26T08:33:31.044Z,1255
2018-03-26T08:34:31.772Z,705
2018-03-26T08:35:32.503Z,575
2018-03-26T08:36:33.234Z,1195
2018-03-26T08:37:33.964Z,1200
2018-03-26T08:38:34.694Z,735
2018-03-26T08:39:35.422Z,995
2018-03-26T08:40:36.153Z,1100
2018-03-26T08:41:36.901Z,565
2018-03-26T08:42:37.630Z,855
2018-03-26T08:43:38.371Z,690
2018-03-26T08:44:39.132Z,935
2018-03-26T08:45:39.833Z,745
2018-03-26T08:46:40.564Z,775
2018-03-26T08:47:41.293Z,590
2018-03-26T08:48:42.023Z,555
2018-03-26T08:49:42.830Z,595
2018-03-26T08:50:43.490Z,615
2018-03-26T08:51:44.236Z,580
2018-03-26T08:52:44.959Z,725
2018-03-26T08:53:45.702Z,965
2018-03-26T08:54:46.432Z,1385
2018-03-26T08:55:47.161Z,1300
2018-03-26T08:56:47.891Z,1320
2018-03-26T08:57:48.623Z,1405
2018-03-26T08:58:49.360Z,1325
2018-03-26T08:59:50.098Z,1370
2018-03-26T09:00:50.835Z,1350
2018-03-26T09:01:51.582Z,1380
2018-03-26T09:02:52.317Z,1400
2018-03-26T09:03:53.054Z,1385
2018-03-26T09:04:53.790Z,1370
2018-03-26T09:05:54.527Z,1325
2018-03-26T09:06:55.276Z,1345
2018-03-26T09:07:56.015Z,1375
2018-03-26T09:08:56.764Z,1425
2018-03-26T09:09:57.509Z,1410
2018-03-26T09:10:58.237Z,1320
2018-03-26T09:11:59.021Z,1340
2018-03-26T09:12:59.727Z,1375
2018-03-26T09:14:00.462Z,1420
2018-03-26T09:15:01.197Z,1395
2018-03-26T09:16:01.932Z,1365
2018-03-26T09:17:02.679Z,1420
2018-03-26T09:18:03.417Z,1480
2018-03-26T09:19:04.160Z,1450
2018-03-26T09:20:04.896Z,1495
2018-03-26T09:21:05.633Z,1500
2018-03-26T09:22:06.378Z,1440
2018-03-26T09:23:07.126Z,1415
2018-03-26T09:24:07.863Z,1460
2018-03-26T09:25:08.598Z,1460
2018-03-26T09:26:09.333Z,1495
2018-03-26T09:27:10.069Z,1430
2018-03-26T09:28:10.802Z,1400
2018-03-26T09:29:11.541Z,1405
2018-03-26T09:30:12.274Z,1410
2018-03-26T09:31:13.011Z,1470
2018-03-26T09:32:13.745Z,1535
2018-03-26T09:33:14.483Z,1595
2018-03-26T09:34:15.217Z,1560
2018-03-26T09:35:15.952Z,1545
2018-03-26T09:36:16.688Z,1545
2018-03-26T09:37:17.424Z,1575
2018-03-26T09:38:18.173Z,1585
2018-03-26T09:39:18.908Z,1555
2018-03-26T09:40:19.646Z,1540
2018-03-26T09:41:20.381Z,1560
2018-03-26T09:42:21.118Z,1500
2018-03-26T09:43:21.855Z,1525
2018-03-26T09:44:22.603Z,1590
2018-03-26T09:45:23.385Z,1605
2018-03-26T09:46:24.075Z,1645
2018-03-26T09:47:24.813Z,1550
2018-03-26T09:48:25.559Z,1570
2018-03-26T09:49:26.296Z,1685
2018-03-26T09:50:27.045Z,1695
2018-03-26T09:51:27.781Z,1670
2018-03-26T09:52:28.529Z,1595
2018-03-26T09:53:29.306Z,1630
2018-03-26T09:54:30.009Z,1725
2018-03-26T09:55:30.759Z,1690
2018-03-26T09:56:31.506Z,1630
2018-03-26T09:57:32.245Z,1655
2018-03-26T09:58:32.981Z,1690
2018-03-26T09:59:33.716Z,1650
2018-03-26T10:00:34.451Z,1670
2018-03-26T10:01:35.200Z,1730
2018-03-26T10:02:35.949Z,1710
2018-03-26T10:03:36.683Z,1685
2018-03-26T10:04:37.420Z,1695
2018-03-26T10:05:38.157Z,1675
2018-03-26T10:06:38.901Z,1650
2018-03-26T10:07:39.630Z,1670
2018-03-26T10:08:40.372Z,1625
2018-03-26T10:09:41.116Z,1625
2018-03-26T10:10:41.853Z,1680
2018-03-26T10:11:42.590Z,1685
2018-03-26T10:12:43.338Z,1735
2018-03-26T10:13:44.074Z,1765
2018-03-26T10:14:44.823Z,1790
2018-03-26T10:15:45.562Z,1865
2018-03-26T10:16:46.296Z,1865
2018-03-26T10:17:47.033Z,1865
2018-03-26T10:18:47.781Z,1835
2018-03-26T10:19:48.580Z,1755
2018-03-26T10:20:49.255Z,1810
2018-03-26T10:21:49.992Z,1875
2018-03-26T10:22:50.730Z,1820
2018-03-26T10:23:51.463Z,1865
2018-03-26T10:24:52.202Z,1840
2018-03-26T10:25:52.950Z,1795
2018-03-26T10:26:53.690Z,1845
2018-03-26T10:27:54.427Z,1890
2018-03-26T10:28:55.166Z,1710
2018-03-26T10:29:55.916Z,1690
2018-03-26T10:30:56.663Z,1645
2018-03-26T10:31:57.400Z,1500
2018-03-26T10:32:58.135Z,1445
2018-03-26T10:33:58.870Z,1660
2018-03-26T10:34:59.607Z,1735
2018-03-26T10:36:00.343Z,1820
2018-03-26T10:37:01.078Z,1770
2018-03-26T10:38:01.815Z,1740
2018-03-26T10:39:02.549Z,1595
2018-03-26T10:40:03.287Z,1650
2018-03-26T10:41:04.023Z,1645
2018-03-26T10:42:04.759Z,1960
2018-03-26T10:43:05.498Z,1870
2018-03-26T10:44:06.228Z,1760
2018-03-26T10:45:06.963Z,1935
2018-03-26T10:46:07.713Z,2215
2018-03-26T10:47:08.450Z,2035
2018-03-26T10:48:09.183Z,1840
2018-03-26T10:49:09.921Z,1860
2018-03-26T10:50:10.657Z,1770
2018-03-26T10:51:11.393Z,1745
2018-03-26T10:52:12.128Z,1785
2018-03-26T10:53:12.864Z,1770
2018-03-26T10:54:13.601Z,1750
2018-03-26T10:55:14.348Z,1710
2018-03-26T10:56:15.094Z,1700
2018-03-26T10:57:15.832Z,1555
2018-03-26T10:58:16.567Z,1625
2018-03-26T10:59:17.304Z,1665
2018-03-26T11:00:18.058Z,1645
2018-03-26T11:01:18.797Z,1645
2018-03-26T11:02:19.532Z,1570
2018-03-26T11:03:20.280Z,1880
2018-03-26T11:04:21.016Z,1925
2018-03-26T11:05:21.753Z,1915
2018-03-26T11:06:22.488Z,1640
2018-03-26T11:07:23.225Z,1675
2018-03-26T11:08:23.961Z,1680
2018-03-26T11:09:24.697Z,1575
2018-03-26T11:10:25.433Z,1680
2018-03-26T11:11:26.168Z,1700
2018-03-26T11:12:26.915Z,1690
2018-03-26T11:13:27.649Z,1860
2018-03-26T11:14:28.383Z,1925
2018-03-26T11:15:29.121Z,1980
2018-03-26T11:16:29.855Z,2010
2018-03-26T11:17:30.591Z,1855
2018-03-26T11:18:31.330Z,1700
2018-03-26T11:19:32.065Z,1885
2018-03-26T11:20:32.821Z,1755
2018-03-26T11:21:33.536Z,1740
2018-03-26T11:22:34.284Z,1930
2018-03-26T11:23:35.040Z,1970
2018-03-26T11:24:35.771Z,1910
2018-03-26T11:25:36.518Z,1850
2018-03-26T11:26:37.256Z,1785
2018-03-26T11:27:37.992Z,1885
2018-03-26T11:28:38.738Z,1770
2018-03-26T11:29:39.490Z,1815
2018-03-26T11:30:40.225Z,1865
2018-03-26T11:31:40.962Z,1840
2018-03-26T11:32:41.700Z,1685
2018-03-26T11:33:42.452Z,1750
2018-03-26T11:34:43.197Z,1730
2018-03-26T11:35:43.933Z,1590
2018-03-26T11:36:44.680Z,1470
2018-03-26T11:37:45.429Z,1535
2018-03-26T11:38:46.183Z,1570
2018-03-26T11:39:46.916Z,1690
2018-03-26T11:40:47.651Z,1735
2018-03-26T11:41:48.391Z,1735
2018-03-26T11:42:49.132Z,1720
2018-03-26T11:43:49.882Z,1670
2018-03-26T11:44:50.619Z,1725
2018-03-26T11:45:51.354Z,1920
2018-03-26T11:46:52.105Z,1845
2018-03-26T11:47:52.840Z,1850
2018-03-26T11:48:53.578Z,1770
2018-03-26T11:49:54.314Z,1820
2018-03-26T11:50:55.059Z,1825
2018-03-26T11:51:55.798Z,1755
2018-03-26T11:52:56.537Z,1705
2018-03-26T11:53:57.273Z,1755
2018-03-26T11:54:58.009Z,1880
2018-03-26T11:55:58.749Z,1865
2018-03-26T11:56:59.478Z,1890
2018-03-26T11:58:00.219Z,1885
2018-03-26T11:59:00.956Z,1905
2018-03-26T12:00:01.696Z,1860
2018-03-26T12:01:02.436Z,1310
2018-03-26T12:02:03.188Z,1795
2018-03-26T12:03:03.927Z,1505
2018-03-26T12:04:04.664Z,1390
2018-03-26T12:05:05.413Z,1760
2018-03-26T12:06:06.159Z,1790
2018-03-26T12:07:06.902Z,755
2018-03-26T12:08:07.649Z,1345
2018-03-26T12:09:08.381Z,1330
2018-03-26T12:10:09.117Z,1690
2018-03-26T12:11:09.850Z,1775
2018-03-26T12:12:10.583Z,1710
2018-03-26T12:13:11.320Z,1805
2018-03-26T12:14:12.053Z,1835
2018-03-26T12:15:12.790Z,1910
2018-03-26T12:16:13.522Z,2065
2018-03-26T12:17:14.270Z,2010
2018-03-26T12:18:15.004Z,1895
2018-03-26T12:19:15.740Z,1885
2018-03-26T12:20:16.479Z,2045
2018-03-26T12:21:17.222Z,1970
2018-03-26T12:22:17.957Z,1960
2018-03-26T12:23:18.693Z,1985
2018-03-26T12:24:19.428Z,1965
2018-03-26T12:25:20.193Z,2185
2018-03-26T12:26:20.900Z,2125
2018-03-26T12:27:21.637Z,1985
2018-03-26T12:28:22.372Z,1845
2018-03-26T12:29:23.109Z,1875
2018-03-26T12:30:23.849Z,1940
2018-03-26T12:31:24.582Z,2065
2018-03-26T12:32:25.373Z,2120
2018-03-26T12:33:26.083Z,2125
2018-03-26T12:34:26.823Z,2035
2018-03-26T12:35:27.564Z,1905
2018-03-26T12:36:28.303Z,2055
2018-03-26T12:37:29.045Z,2115
2018-03-26T12:38:29.785Z,2025
2018-03-26T12:39:30.538Z,1735
2018-03-26T12:40:31.292Z,1610
2018-03-26T12:41:32.036Z,1685
2018-03-26T12:42:32.773Z,1845
2018-03-26T12:43:33.504Z,1835
2018-03-26T12:44:34.244Z,1930
2018-03-26T12:45:34.981Z,1965
2018-03-26T12:46:35.732Z,1945
2018-03-26T12:47:36.468Z,1970
2018-03-26T12:48:37.221Z,1975
2018-03-26T12:49:37.956Z,1975
2018-03-26T12:50:38.694Z,2045
2018-03-26T12:51:39.433Z,2145
2018-03-26T12:52:40.186Z,1995
2018-03-26T12:53:40.922Z,1990
2018-03-26T12:54:41.718Z,1860
2018-03-26T12:55:42.401Z,1780
2018-03-26T12:56:43.134Z,1810
2018-03-26T12:57:43.873Z,2030
2018-03-26T12:58:44.624Z,1920
2018-03-26T12:59:45.370Z,1810
2018-03-26T13:00:46.104Z,1820
2018-03-26T13:01:46.843Z,1700
2018-03-26T13:02:47.575Z,1585
2018-03-26T13:03:48.309Z,1730
2018-03-26T13:04:49.045Z,1805
2018-03-26T13:05:49.780Z,1790
2018-03-26T13:06:50.515Z,1830
2018-03-26T13:07:51.281Z,1865
2018-03-26T13:08:52.010Z,1505
2018-03-26T13:09:52.752Z,1400
2018-03-26T13:10:53.482Z,1825
2018-03-26T13:11:54.215Z,1130
2018-03-26T13:12:54.951Z,1780
2018-03-26T13:13:55.685Z,1765
2018-03-26T13:14:56.420Z,1480
2018-03-26T13:15:57.155Z,905
2018-03-26T13:16:57.887Z,410
2018-03-26T13:17:58.618Z,380
2018-03-26T13:18:59.368Z,840
2018-03-26T13:20:00.098Z,1425
2018-03-26T13:21:00.845Z,1530
2018-03-26T13:22:01.578Z,1685
2018-03-26T13:23:02.310Z,1510
2018-03-26T13:24:03.056Z,1530
2018-03-26T13:25:03.788Z,1535
2018-03-26T13:26:04.521Z,1400
2018-03-26T13:27:05.267Z,1510
2018-03-26T13:28:06.000Z,1485
2018-03-26T13:29:06.746Z,1560
2018-03-26T13:30:07.478Z,380
2018-03-26T13:31:08.218Z,360
2018-03-26T13:32:08.945Z,410
2018-03-26T13:33:09.688Z,1500
2018-03-26T13:34:10.436Z,1635
2018-03-26T13:35:11.179Z,1625
2018-03-26T13:36:11.910Z,1770
2018-03-26T13:37:12.657Z,1645
2018-03-26T13:38:13.387Z,1450
2018-03-26T13:39:14.133Z,1620
2018-03-26T13:40:14.866Z,1520
2018-03-26T13:41:15.610Z,715
2018-03-26T13:42:16.344Z,1285
2018-03-26T13:43:17.080Z,1530
2018-03-26T13:44:17.808Z,395
2018-03-26T13:45:18.540Z,370
2018-03-26T13:46:19.272Z,350
2018-03-26T13:47:20.002Z,385
2018-03-26T13:48:20.734Z,1455
2018-03-26T13:49:21.465Z,1190
2018-03-26T13:50:22.196Z,820
2018-03-26T13:51:22.928Z,415
2018-03-26T13:52:23.660Z,1455
2018-03-26T13:53:24.390Z,1045
2018-03-26T13:54:25.147Z,1555
2018-03-26T13:55:25.852Z,1715
2018-03-26T13:56:26.584Z,1750
2018-03-26T13:57:27.318Z,1590
2018-03-26T13:58:28.051Z,1540
2018-03-26T13:59:28.782Z,1605
2018-03-26T14:00:29.516Z,1535
2018-03-26T14:01:30.247Z,1325
2018-03-26T14:02:30.994Z,1480
2018-03-26T14:03:31.740Z,1515
2018-03-26T14:04:32.472Z,1620
2018-03-26T14:05:33.207Z,1440
2018-03-26T14:06:33.939Z,1490
2018-03-26T14:07:34.672Z,410
2018-03-26T14:08:35.403Z,1105
2018-03-26T14:09:36.150Z,1570